»·PEaware :: AAR711 RKSI-RCTP

AAR711 :: RKSI-RCTP

FLIGHT INFORMATION

Flight Status: Arrived
Operator:
Asiana Airlines
More flights by this operator :: More flights under this callsign
Pilot: Anonymous 14085 (14085)
Aircraft: Unknown
(B748)
More flights by this aircraft type
Origin: RKSI Incheon Intl
Republic of Korea
Destination: RCTP Chiang Kai Shek Intl
Taiwan
More flights between these airports :: More routes between these airports
Route: BOPT1Y BOPTA Z51 BEDES Y711 ATOTI B576 BAKER BK1B
File this flight plan on PilotEdge
Remarks: PBN / A1B1D1O1S2 DOF / 170613 REG / N484SB EET / RJJJ0105 RCAA0120 OPR / AAR RMK / TCAS SIMBRIEF
Altitude:
(Current/Filed)
38,000ft
Speed:
(Current/Filed)
482kts
Departed: 13-Jun-17 02:10 PM
Arrived: 13-Jun-17 04:19 PM
Distance/Time
Traveled:
788nm/2:09
Distance/Time
To Go:
Arrived

Flight Plot

Page will automatically refresh every two minutes.

Flight plan parsing failed; only flown route is shown


Map Options




Map Legend


Flown Route
Filed Route
Departure Airport
Arrival Airport
Navaid (VOR, NDB)
Fix

Horizontal Profiles

Position Reports

Time Latitude Longitude Heading Altitude Ground
Speed
13-Jun-17 13:52 37.453917 126.451718 227 60ft 0kts
13-Jun-17 13:53 37.453917 126.451718 227 60ft 0kts
13-Jun-17 13:54 37.453917 126.451718 227 60ft 0kts
13-Jun-17 13:55 37.453917 126.451718 227 60ft 0kts
13-Jun-17 13:56 37.453917 126.451718 227 60ft 0kts
13-Jun-17 13:57 37.453917 126.451718 227 60ft 0kts
13-Jun-17 13:58 37.453917 126.451718 227 60ft 0kts
13-Jun-17 13:59 37.453917 126.451718 227 60ft 0kts
13-Jun-17 14:00 37.453917 126.451718 227 60ft 0kts
13-Jun-17 14:01 37.453917 126.451718 227 60ft 0kts
13-Jun-17 14:02 37.453917 126.451718 227 60ft 0kts
13-Jun-17 14:03 37.453917 126.451718 227 60ft 0kts
13-Jun-17 14:04 37.453917 126.451718 227 60ft 0kts
13-Jun-17 14:05 37.453917 126.451718 227 60ft 0kts
13-Jun-17 14:06 37.453917 126.451718 227 60ft 0kts
13-Jun-17 14:07 37.453945 126.451757 226 60ft 0kts
13-Jun-17 14:08 37.454999 126.452128 130 59ft 0kts
13-Jun-17 14:09 37.454568 126.452766 130 61ft 11kts
13-Jun-17 14:10 37.454984 126.455440 49 49ft 17kts
13-Jun-17 14:11 37.454803 126.460335 325 31ft 17kts
13-Jun-17 14:12 37.484310 126.435037 326 910ft 208kts
13-Jun-17 14:13 37.535539 126.376844 302 4905ft 266kts
13-Jun-17 14:14 37.561725 126.290295 279 9612ft 278kts
13-Jun-17 14:15 37.557733 126.186735 258 13272ft 318kts
13-Jun-17 14:16 37.519813 126.085440 237 17410ft 328kts
13-Jun-17 14:17 37.451548 126.006736 217 20727ft 351kts
13-Jun-17 14:18 37.358753 125.959126 198 23578ft 378kts
13-Jun-17 14:19 37.250342 125.953060 179 26104ft 406kts
13-Jun-17 14:20 37.137521 125.984000 173 28305ft 425kts
13-Jun-17 14:21 37.018855 126.017125 180 30193ft 439kts
13-Jun-17 14:22 36.910277 126.094896 144 31668ft 481kts
13-Jun-17 14:23 36.802814 126.195926 147 33300ft 495kts
13-Jun-17 14:24 36.691270 126.299539 145 34836ft 509kts
13-Jun-17 14:25 36.579266 126.406587 145 36618ft 509kts
13-Jun-17 14:26 36.467686 126.513034 145 37945ft 512kts
13-Jun-17 14:27 36.351581 126.622807 145 38037ft 543kts
13-Jun-17 14:28 36.231277 126.737254 145 38005ft 553kts
13-Jun-17 14:29 36.096706 126.816632 180 38027ft 539kts
13-Jun-17 14:30 35.949689 126.799788 197 38581ft 531kts
13-Jun-17 14:31 35.804675 126.772940 192 39536ft 536kts
13-Jun-17 14:32 35.656090 126.758236 191 39974ft 537kts
13-Jun-17 14:33 35.507849 126.743117 192 39990ft 535kts
13-Jun-17 14:34 35.359683 126.726935 192 39991ft 536kts
13-Jun-17 14:35 35.211912 126.711303 192 39993ft 536kts
13-Jun-17 14:36 35.067150 126.695742 192 39994ft 536kts
13-Jun-17 14:37 34.918980 126.680182 192 39996ft 537kts
13-Jun-17 14:38 34.771232 126.664844 192 39987ft 537kts
13-Jun-17 14:39 34.623082 126.649390 192 39988ft 537kts
13-Jun-17 14:40 34.474918 126.633714 192 39989ft 537kts
13-Jun-17 14:41 34.326815 126.618086 192 39983ft 534kts
13-Jun-17 14:42 34.179018 126.602475 192 39988ft 536kts
13-Jun-17 14:43 34.031201 126.587302 192 39967ft 536kts
13-Jun-17 14:44 33.882984 126.571814 192 39962ft 536kts
13-Jun-17 14:45 33.741375 126.533308 208 39962ft 517kts
13-Jun-17 14:46 33.608869 126.469356 210 39960ft 515kts
13-Jun-17 14:47 33.474995 126.408697 208 39959ft 517kts
13-Jun-17 14:48 33.339902 126.351251 207 39960ft 518kts
13-Jun-17 14:49 33.204957 126.292519 207 39973ft 518kts
13-Jun-17 14:50 33.069687 126.234296 207 39974ft 518kts
13-Jun-17 14:51 32.934357 126.176815 207 39975ft 518kts
13-Jun-17 14:52 32.799655 126.119067 207 39966ft 518kts
13-Jun-17 14:53 32.664366 126.061663 207 39966ft 517kts
13-Jun-17 14:54 32.529460 126.004111 207 39967ft 517kts
13-Jun-17 14:55 32.394731 125.946902 207 39973ft 518kts
13-Jun-17 14:56 32.259837 125.889966 207 39968ft 517kts
13-Jun-17 14:57 32.127328 125.834083 207 39968ft 517kts
13-Jun-17 14:58 31.992176 125.777242 207 39969ft 517kts
13-Jun-17 14:59 31.857207 125.720536 207 39958ft 517kts
13-Jun-17 15:00 31.722158 125.664541 207 39960ft 517kts
13-Jun-17 15:01 31.587508 125.608128 208 39963ft 512kts
13-Jun-17 15:02 31.452414 125.551464 207 39960ft 516kts
13-Jun-17 15:03 31.317547 125.495398 208 39962ft 516kts
13-Jun-17 15:04 31.182699 125.439167 208 39962ft 516kts
13-Jun-17 15:05 31.047762 125.382986 208 39963ft 516kts
13-Jun-17 15:06 30.913238 125.326913 207 39979ft 517kts
13-Jun-17 15:07 30.779948 125.271278 207 39968ft 517kts
13-Jun-17 15:08 30.644575 125.215809 207 39973ft 518kts
13-Jun-17 15:09 30.509791 125.160666 205 39936ft 518kts
13-Jun-17 15:10 30.362914 125.148805 180 39951ft 548kts
13-Jun-17 15:11 30.212124 125.174943 178 39947ft 550kts
13-Jun-17 15:12 30.060917 125.193169 182 39947ft 547kts
13-Jun-17 15:13 29.915644 125.172981 207 39957ft 517kts
13-Jun-17 15:14 29.785123 125.109194 211 39955ft 508kts
13-Jun-17 15:15 29.666593 125.026377 227 39970ft 491kts
13-Jun-17 15:16 29.561900 124.927204 226 39939ft 491kts
13-Jun-17 15:17 29.453296 124.832281 224 39938ft 494kts
13-Jun-17 15:18 29.342485 124.739719 224 39938ft 494kts
13-Jun-17 15:19 29.231695 124.647269 224 39938ft 494kts
13-Jun-17 15:20 29.121136 124.554820 224 39937ft 494kts
13-Jun-17 15:21 29.011736 124.463548 224 39935ft 495kts
13-Jun-17 15:22 28.900806 124.371263 224 39936ft 494kts
13-Jun-17 15:23 28.791597 124.281162 224 39941ft 495kts
13-Jun-17 15:24 28.680827 124.189402 224 39941ft 495kts
13-Jun-17 15:25 28.569743 124.097647 224 39941ft 495kts
13-Jun-17 15:26 28.458618 124.006238 224 39940ft 495kts
13-Jun-17 15:27 28.347153 123.914807 224 39940ft 495kts
13-Jun-17 15:28 28.236033 123.823890 224 39940ft 495kts
13-Jun-17 15:29 28.124590 123.732909 224 39940ft 495kts
13-Jun-17 15:30 28.013390 123.642364 224 39940ft 495kts
13-Jun-17 15:31 27.902119 123.551997 224 39939ft 495kts
13-Jun-17 15:32 27.790054 123.462388 223 39929ft 495kts
13-Jun-17 15:33 27.678112 123.372694 224 39929ft 495kts
13-Jun-17 15:34 27.567135 123.282524 224 39943ft 495kts
13-Jun-17 15:35 27.455943 123.192170 223 39943ft 496kts
13-Jun-17 15:36 27.345068 123.103217 223 39864ft 496kts
13-Jun-17 15:37 27.232947 123.013695 223 39809ft 496kts
13-Jun-17 15:38 27.226185 123.008300 223 39809ft 496kts
13-Jun-17 15:39 27.226185 123.008300 223 39809ft 496kts
13-Jun-17 15:40 27.226185 123.008300 223 39809ft 496kts
13-Jun-17 15:41 27.226185 123.008300 223 39809ft 496kts
13-Jun-17 15:42 27.226185 123.008300 223 39809ft 496kts
13-Jun-17 15:43 27.226185 123.008300 223 39809ft 496kts
13-Jun-17 15:44 27.226185 123.008300 223 39809ft 496kts
13-Jun-17 15:45 27.226185 123.008300 223 39809ft 496kts
13-Jun-17 15:46 27.226185 123.008300 223 39809ft 496kts
13-Jun-17 15:47 27.226185 123.008300 223 39809ft 496kts
13-Jun-17 15:48 27.226185 123.008300 223 39809ft 496kts
13-Jun-17 15:49 27.226185 123.008300 223 39809ft 496kts
13-Jun-17 15:50 27.226185 123.008300 223 39809ft 496kts
13-Jun-17 15:51 27.156741 122.952942 223 39834ft 494kts
13-Jun-17 15:52 27.045082 122.863988 223 39834ft 494kts
13-Jun-17 15:53 26.933204 122.775077 223 39704ft 496kts
13-Jun-17 15:54 26.823026 122.688703 223 37080ft 478kts
13-Jun-17 15:55 26.716981 122.606038 223 34567ft 455kts
13-Jun-17 15:56 26.616670 122.527029 223 32166ft 432kts
13-Jun-17 15:57 26.521415 122.451973 222 29871ft 409kts
13-Jun-17 15:58 26.431171 122.381043 222 27643ft 388kts
13-Jun-17 15:59 26.345982 122.313811 222 25559ft 369kts
13-Jun-17 16:00 26.263345 122.248115 221 23658ft 363kts
13-Jun-17 16:01 26.181889 122.184225 220 21820ft 355kts
13-Jun-17 16:02 26.101946 122.121903 220 20033ft 348kts
13-Jun-17 16:03 26.023636 122.060944 220 18298ft 342kts
13-Jun-17 16:04 25.946190 122.000719 219 16605ft 341kts
13-Jun-17 16:05 25.869378 121.941332 218 14949ft 340kts
13-Jun-17 16:06 25.792337 121.882575 218 13314ft 334kts
13-Jun-17 16:07 25.716500 121.824200 217 11739ft 329kts
13-Jun-17 16:08 25.643567 121.767966 217 10505ft 305kts
13-Jun-17 16:09 25.574495 121.714671 216 9153ft 301kts
13-Jun-17 16:10 25.508472 121.663909 217 7724ft 280kts
13-Jun-17 16:11 25.446865 121.616467 216 6293ft 260kts
13-Jun-17 16:12 25.390157 121.572953 217 4811ft 248kts
13-Jun-17 16:13 25.332173 121.528287 216 3806ft 259kts
13-Jun-17 16:14 25.271470 121.485718 211 3021ft 249kts
13-Jun-17 16:15 25.227479 121.435427 230 2950ft 204kts
13-Jun-17 16:16 25.190365 121.388239 230 2998ft 205kts
13-Jun-17 16:17 25.154562 121.342711 229 2366ft 178kts
13-Jun-17 16:18 25.123282 121.304082 234 1432ft 164kts
13-Jun-17 16:19 25.095512 121.267728 234 594ft 149kts
13-Jun-17 16:20 25.074457 121.240785 229 111ft 45kts
13-Jun-17 16:22 25.072484 121.231985 37 107ft 16kts
13-Jun-17 16:23 25.092547 121.263809 233 491ft 148kts

Navigation Log

Ident Type
Flight plan parsing failed, navigation log unavailable